sensor_id;sensor_type;location;lat;lon;timestamp;pressure;altitude;pressure_sealevel;temperature;humidity
7309;BME280;3695;53.330;9.876;2023-08-01T00:02:06;118423.19;;;10.48;nan
7309;BME280;3695;53.330;9.876;2023-08-01T00:04:32;118361.34;;;10.34;nan
7309;BME280;3695;53.330;9.876;2023-08-01T00:06:59;118349.59;;;10.41;nan
7309;BME280;3695;53.330;9.876;2023-08-01T00:09:27;118336.63;;;10.33;nan
7309;BME280;3695;53.330;9.876;2023-08-01T00:11:53;118169.97;;;10.16;nan
7309;BME280;3695;53.330;9.876;2023-08-01T00:14:20;118341.41;;;10.41;nan
7309;BME280;3695;53.330;9.876;2023-08-01T00:16:49;118294.25;;;10.35;nan
7309;BME280;3695;53.330;9.876;2023-08-01T00:19:15;117980.59;;;10.37;nan
7309;BME280;3695;53.330;9.876;2023-08-01T00:21:42;118095.59;;;10.42;nan
7309;BME280;3695;53.330;9.876;2023-08-01T00:24:08;118170.34;;;10.51;nan
7309;BME280;3695;53.330;9.876;2023-08-01T00:26:36;118047.28;;;10.34;nan
7309;BME280;3695;53.330;9.876;2023-08-01T00:29:02;118037.31;;;10.54;nan
7309;BME280;3695;53.330;9.876;2023-08-01T00:31:29;118007.00;;;10.58;nan
7309;BME280;3695;53.330;9.876;2023-08-01T00:33:55;118024.34;;;10.39;nan
7309;BME280;3695;53.330;9.876;2023-08-01T00:36:22;118001.13;;;10.55;nan
7309;BME280;3695;53.330;9.876;2023-08-01T00:38:49;118001.53;;;10.58;nan
7309;BME280;3695;53.330;9.876;2023-08-01T00:41:15;118097.97;;;10.46;nan
7309;BME280;3695;53.330;9.876;2023-08-01T00:43:43;118114.28;;;10.73;nan
7309;BME280;3695;53.330;9.876;2023-08-01T00:46:09;118169.69;;;10.66;nan
7309;BME280;3695;53.330;9.876;2023-08-01T00:48:36;118193.38;;;10.60;nan
7309;BME280;3695;53.330;9.876;2023-08-01T00:51:04;118182.88;;;10.63;nan
7309;BME280;3695;53.330;9.876;2023-08-01T00:53:31;118114.38;;;10.60;nan
7309;BME280;3695;53.330;9.876;2023-08-01T00:55:58;118281.28;;;10.79;nan
7309;BME280;3695;53.330;9.876;2023-08-01T00:58:24;118248.94;;;10.95;nan
7309;BME280;3695;53.330;9.876;2023-08-01T01:00:52;118318.19;;;10.90;nan
7309;BME280;3695;53.330;9.876;2023-08-01T01:03:20;118329.75;;;11.01;nan
7309;BME280;3695;53.330;9.876;2023-08-01T01:05:49;118256.94;;;11.00;nan
7309;BME280;3695;53.330;9.876;2023-08-01T01:08:19;118218.13;;;10.89;nan
7309;BME280;3695;53.330;9.876;2023-08-01T01:10:46;118125.78;;;10.78;nan
7309;BME280;3695;53.330;9.876;2023-08-01T01:13:12;118157.09;;;10.74;nan
7309;BME280;3695;53.330;9.876;2023-08-01T01:15:39;117922.69;;;10.94;nan
7309;BME280;3695;53.330;9.876;2023-08-01T01:18:06;117950.66;;;10.86;nan
7309;BME280;3695;53.330;9.876;2023-08-01T01:20:36;117891.69;;;10.86;nan
7309;BME280;3695;53.330;9.876;2023-08-01T01:23:04;117963.75;;;10.95;nan
7309;BME280;3695;53.330;9.876;2023-08-01T01:25:32;118038.69;;;10.92;nan
7309;BME280;3695;53.330;9.876;2023-08-01T01:27:59;118045.94;;;11.06;nan
7309;BME280;3695;53.330;9.876;2023-08-01T01:30:26;117862.75;;;10.94;nan
7309;BME280;3695;53.330;9.876;2023-08-01T01:32:54;117902.44;;;10.92;nan
7309;BME280;3695;53.330;9.876;2023-08-01T01:35:20;117865.47;;;11.08;nan
7309;BME280;3695;53.330;9.876;2023-08-01T01:37:48;117790.72;;;10.99;nan
7309;BME280;3695;53.330;9.876;2023-08-01T01:40:14;118041.88;;;11.16;nan
7309;BME280;3695;53.330;9.876;2023-08-01T01:42:41;118017.72;;;11.12;nan
7309;BME280;3695;53.330;9.876;2023-08-01T01:45:08;118088.41;;;11.18;nan
7309;BME280;3695;53.330;9.876;2023-08-01T01:47:34;117879.09;;;11.01;nan
7309;BME280;3695;53.330;9.876;2023-08-01T01:50:01;117748.25;;;11.15;nan
7309;BME280;3695;53.330;9.876;2023-08-01T01:52:28;117631.53;;;10.90;nan
7309;BME280;3695;53.330;9.876;2023-08-01T01:54:56;117539.63;;;11.03;nan
7309;BME280;3695;53.330;9.876;2023-08-01T01:57:22;117609.84;;;11.13;nan
7309;BME280;3695;53.330;9.876;2023-08-01T01:59:49;117637.28;;;11.21;nan
7309;BME280;3695;53.330;9.876;2023-08-01T02:02:15;117599.66;;;11.26;nan
7309;BME280;3695;53.330;9.876;2023-08-01T02:04:42;117512.09;;;11.16;nan
7309;BME280;3695;53.330;9.876;2023-08-01T02:07:08;117598.47;;;11.38;nan
7309;BME280;3695;53.330;9.876;2023-08-01T02:09:35;117404.41;;;11.19;nan
7309;BME280;3695;53.330;9.876;2023-08-01T02:12:03;117234.97;;;11.08;nan
7309;BME280;3695;53.330;9.876;2023-08-01T02:14:30;117290.81;;;11.11;nan
7309;BME280;3695;53.330;9.876;2023-08-01T02:16:56;117244.75;;;11.21;nan
7309;BME280;3695;53.330;9.876;2023-08-01T02:19:22;117282.56;;;11.18;nan
7309;BME280;3695;53.330;9.876;2023-08-01T02:21:49;117321.19;;;11.30;nan
7309;BME280;3695;53.330;9.876;2023-08-01T02:24:15;117026.03;;;10.99;nan
7309;BME280;3695;53.330;9.876;2023-08-01T02:26:42;117173.78;;;11.13;nan
7309;BME280;3695;53.330;9.876;2023-08-01T02:29:09;117163.00;;;11.21;nan
7309;BME280;3695;53.330;9.876;2023-08-01T02:31:36;117044.31;;;11.16;nan
7309;BME280;3695;53.330;9.876;2023-08-01T02:34:02;117103.38;;;11.24;nan
7309;BME280;3695;53.330;9.876;2023-08-01T02:36:29;117005.13;;;11.07;nan
7309;BME280;3695;53.330;9.876;2023-08-01T02:38:55;117040.19;;;11.35;nan
7309;BME280;3695;53.330;9.876;2023-08-01T02:41:22;117051.94;;;11.27;nan
7309;BME280;3695;53.330;9.876;2023-08-01T02:43:48;116947.06;;;11.24;nan
7309;BME280;3695;53.330;9.876;2023-08-01T02:46:16;116912.25;;;11.21;nan
7309;BME280;3695;53.330;9.876;2023-08-01T02:48:42;116955.56;;;11.43;nan
7309;BME280;3695;53.330;9.876;2023-08-01T02:51:09;116926.44;;;11.34;nan
7309;BME280;3695;53.330;9.876;2023-08-01T02:53:35;116659.41;;;11.10;nan
7309;BME280;3695;53.330;9.876;2023-08-01T02:56:02;116854.91;;;11.28;nan
7309;BME280;3695;53.330;9.876;2023-08-01T02:58:31;116778.59;;;11.28;nan
7309;BME280;3695;53.330;9.876;2023-08-01T03:00:58;116962.16;;;11.29;nan
7309;BME280;3695;53.330;9.876;2023-08-01T03:03:25;116945.63;;;11.27;nan
7309;BME280;3695;53.330;9.876;2023-08-01T03:05:52;116925.25;;;11.24;nan
7309;BME280;3695;53.330;9.876;2023-08-01T03:08:19;116927.25;;;11.33;nan
7309;BME280;3695;53.330;9.876;2023-08-01T03:10:45;116811.72;;;11.16;nan
7309;BME280;3695;53.330;9.876;2023-08-01T03:13:11;116903.28;;;11.22;nan
7309;BME280;3695;53.330;9.876;2023-08-01T03:15:38;116979.41;;;11.37;nan
7309;BME280;3695;53.330;9.876;2023-08-01T03:18:04;116923.56;;;11.33;nan
7309;BME280;3695;53.330;9.876;2023-08-01T03:20:32;117011.50;;;11.39;nan
7309;BME280;3695;53.330;9.876;2023-08-01T03:22:58;116838.63;;;11.37;nan
7309;BME280;3695;53.330;9.876;2023-08-01T03:25:25;116757.41;;;11.26;nan
7309;BME280;3695;53.330;9.876;2023-08-01T03:27:51;116488.56;;;11.26;nan
7309;BME280;3695;53.330;9.876;2023-08-01T03:30:19;116423.34;;;11.37;nan
7309;BME280;3695;53.330;9.876;2023-08-01T03:32:46;116466.31;;;11.39;nan
7309;BME280;3695;53.330;9.876;2023-08-01T03:35:12;116243.31;;;11.26;nan
7309;BME280;3695;53.330;9.876;2023-08-01T03:37:40;116185.41;;;11.01;nan
7309;BME280;3695;53.330;9.876;2023-08-01T03:40:07;116265.28;;;11.19;nan
7309;BME280;3695;53.330;9.876;2023-08-01T03:42:34;116266.53;;;11.31;nan
7309;BME280;3695;53.330;9.876;2023-08-01T03:45:01;116361.13;;;11.41;nan
7309;BME280;3695;53.330;9.876;2023-08-01T03:47:27;116329.19;;;11.49;nan
7309;BME280;3695;53.330;9.876;2023-08-01T03:49:54;116158.84;;;11.26;nan
7309;BME280;3695;53.330;9.876;2023-08-01T03:52:20;116128.66;;;11.33;nan
7309;BME280;3695;53.330;9.876;2023-08-01T03:54:48;116143.22;;;11.43;nan
7309;BME280;3695;53.330;9.876;2023-08-01T03:57:15;116141.09;;;11.49;nan
7309;BME280;3695;53.330;9.876;2023-08-01T03:59:41;116004.47;;;11.27;nan
7309;BME280;3695;53.330;9.876;2023-08-01T04:02:08;116019.03;;;11.36;nan
7309;BME280;3695;53.330;9.876;2023-08-01T04:04:35;116050.31;;;11.50;nan
7309;BME280;3695;53.330;9.876;2023-08-01T04:07:01;115939.81;;;11.34;nan
7309;BME280;3695;53.330;9.876;2023-08-01T04:09:28;115824.19;;;11.22;nan
7309;BME280;3695;53.330;9.876;2023-08-01T04:11:56;115680.16;;;11.35;nan
7309;BME280;3695;53.330;9.876;2023-08-01T04:14:22;115582.00;;;11.25;nan
7309;BME280;3695;53.330;9.876;2023-08-01T04:16:49;115616.13;;;11.51;nan
7309;BME280;3695;53.330;9.876;2023-08-01T04:19:15;115900.16;;;11.57;nan
7309;BME280;3695;53.330;9.876;2023-08-01T04:21:41;115877.34;;;11.46;nan
7309;BME280;3695;53.330;9.876;2023-08-01T04:24:08;115845.03;;;11.41;nan
7309;BME280;3695;53.330;9.876;2023-08-01T04:26:35;115962.41;;;11.33;nan
7309;BME280;3695;53.330;9.876;2023-08-01T04:29:03;115855.50;;;11.36;nan
7309;BME280;3695;53.330;9.876;2023-08-01T04:31:29;115898.22;;;11.46;nan
7309;BME280;3695;53.330;9.876;2023-08-01T04:33:56;115891.06;;;11.38;nan
7309;BME280;3695;53.330;9.876;2023-08-01T04:36:22;115859.91;;;11.25;nan
7309;BME280;3695;53.330;9.876;2023-08-01T04:38:49;115882.00;;;11.28;nan
7309;BME280;3695;53.330;9.876;2023-08-01T04:41:15;115847.91;;;11.23;nan
7309;BME280;3695;53.330;9.876;2023-08-01T04:43:41;115803.34;;;11.42;nan
7309;BME280;3695;53.330;9.876;2023-08-01T04:46:09;115682.34;;;11.40;nan
7309;BME280;3695;53.330;9.876;2023-08-01T04:48:36;115498.09;;;11.21;nan
7309;BME280;3695;53.330;9.876;2023-08-01T04:51:02;115555.75;;;11.36;nan
7309;BME280;3695;53.330;9.876;2023-08-01T04:53:29;115430.94;;;11.01;nan
7309;BME280;3695;53.330;9.876;2023-08-01T04:55:55;115376.34;;;11.10;nan
7309;BME280;3695;53.330;9.876;2023-08-01T04:58:22;115470.56;;;11.28;nan
7309;BME280;3695;53.330;9.876;2023-08-01T05:00:48;115403.84;;;11.23;nan
7309;BME280;3695;53.330;9.876;2023-08-01T05:03:16;115265.41;;;11.29;nan
7309;BME280;3695;53.330;9.876;2023-08-01T05:05:43;115101.44;;;11.23;nan
7309;BME280;3695;53.330;9.876;2023-08-01T05:08:09;115093.88;;;11.41;nan
7309;BME280;3695;53.330;9.876;2023-08-01T05:10:36;114937.16;;;11.13;nan
7309;BME280;3695;53.330;9.876;2023-08-01T05:13:02;115118.19;;;11.50;nan
7309;BME280;3695;53.330;9.876;2023-08-01T05:15:29;115007.69;;;11.31;nan
7309;BME280;3695;53.330;9.876;2023-08-01T05:17:55;114996.84;;;11.43;nan
7309;BME280;3695;53.330;9.876;2023-08-01T05:20:23;114781.44;;;11.07;nan
7309;BME280;3695;53.330;9.876;2023-08-01T05:22:51;114757.78;;;11.06;nan
7309;BME280;3695;53.330;9.876;2023-08-01T05:25:17;114870.63;;;11.21;nan
7309;BME280;3695;53.330;9.876;2023-08-01T05:27:43;114562.66;;;11.06;nan
7309;BME280;3695;53.330;9.876;2023-08-01T05:30:10;114294.06;;;10.82;nan
7309;BME280;3695;53.330;9.876;2023-08-01T05:32:37;114118.44;;;11.13;nan
7309;BME280;3695;53.330;9.876;2023-08-01T05:35:06;113652.44;;;10.91;nan
7309;BME280;3695;53.330;9.876;2023-08-01T05:37:34;112711.16;;;11.35;nan
7309;BME280;3695;53.330;9.876;2023-08-01T05:40:02;111670.97;;;10.95;nan
7309;BME280;3695;53.330;9.876;2023-08-01T05:42:28;111835.31;;;10.75;nan
7309;BME280;3695;53.330;9.876;2023-08-01T05:44:54;112100.66;;;10.92;nan
7309;BME280;3695;53.330;9.876;2023-08-01T05:47:21;112196.47;;;10.85;nan
7309;BME280;3695;53.330;9.876;2023-08-01T05:49:48;112893.84;;;10.67;nan
7309;BME280;3695;53.330;9.876;2023-08-01T05:52:15;113521.97;;;10.79;nan
7309;BME280;3695;53.330;9.876;2023-08-01T05:54:42;113687.72;;;11.04;nan
7309;BME280;3695;53.330;9.876;2023-08-01T05:57:09;113565.13;;;10.88;nan
7309;BME280;3695;53.330;9.876;2023-08-01T05:59:36;113216.66;;;10.36;nan
7309;BME280;3695;53.330;9.876;2023-08-01T06:02:03;113457.34;;;10.90;nan
7309;BME280;3695;53.330;9.876;2023-08-01T06:04:29;113439.00;;;11.02;nan
7309;BME280;3695;53.330;9.876;2023-08-01T06:06:56;113452.69;;;11.03;nan
7309;BME280;3695;53.330;9.876;2023-08-01T06:09:22;113211.38;;;11.04;nan
7309;BME280;3695;53.330;9.876;2023-08-01T06:11:50;113183.97;;;11.35;nan
7309;BME280;3695;53.330;9.876;2023-08-01T06:14:17;112868.25;;;10.82;nan
7309;BME280;3695;53.330;9.876;2023-08-01T06:16:43;113132.66;;;11.43;nan
7309;BME280;3695;53.330;9.876;2023-08-01T06:19:10;112934.59;;;11.21;nan
7309;BME280;3695;53.330;9.876;2023-08-01T06:21:36;112714.00;;;10.98;nan
7309;BME280;3695;53.330;9.876;2023-08-01T06:24:03;112772.97;;;11.19;nan
7309;BME280;3695;53.330;9.876;2023-08-01T06:26:30;112671.94;;;11.11;nan
7309;BME280;3695;53.330;9.876;2023-08-01T06:28:57;112578.97;;;10.81;nan
7309;BME280;3695;53.330;9.876;2023-08-01T06:31:24;112378.91;;;10.67;nan
7309;BME280;3695;53.330;9.876;2023-08-01T06:33:50;110364.97;;;10.38;nan
7309;BME280;3695;53.330;9.876;2023-08-01T06:36:17;110000.16;;;10.59;nan
7309;BME280;3695;53.330;9.876;2023-08-01T06:38:44;109025.59;;;10.70;nan
7309;BME280;3695;53.330;9.876;2023-08-01T06:41:11;108574.41;;;10.80;nan
7309;BME280;3695;53.330;9.876;2023-08-01T06:43:37;108415.72;;;10.90;nan
7309;BME280;3695;53.330;9.876;2023-08-01T06:46:05;108488.25;;;10.40;nan
7309;BME280;3695;53.330;9.876;2023-08-01T06:48:32;108629.31;;;10.49;nan
7309;BME280;3695;53.330;9.876;2023-08-01T06:50:59;108376.50;;;11.01;nan
7309;BME280;3695;53.330;9.876;2023-08-01T06:53:26;107755.06;;;10.74;nan
7309;BME280;3695;53.330;9.876;2023-08-01T06:55:52;107485.97;;;11.03;nan
7309;BME280;3695;53.330;9.876;2023-08-01T06:58:19;106053.63;;;11.14;nan
7309;BME280;3695;53.330;9.876;2023-08-01T07:03:22;105494.50;;;10.68;nan
7309;BME280;3695;53.330;9.876;2023-08-01T07:05:48;105565.09;;;10.95;nan
7309;BME280;3695;53.330;9.876;2023-08-01T07:08:15;105411.50;;;11.17;nan
7309;BME280;3695;53.330;9.876;2023-08-01T07:10:41;105202.28;;;11.06;nan
7309;BME280;3695;53.330;9.876;2023-08-01T07:13:08;105173.16;;;11.31;nan
7309;BME280;3695;53.330;9.876;2023-08-01T07:15:34;104938.66;;;11.20;nan
7309;BME280;3695;53.330;9.876;2023-08-01T07:18:01;104845.31;;;11.32;nan
7309;BME280;3695;53.330;9.876;2023-08-01T07:20:29;104889.63;;;10.99;nan
7309;BME280;3695;53.330;9.876;2023-08-01T07:22:56;104780.66;;;10.92;nan
7309;BME280;3695;53.330;9.876;2023-08-01T07:25:22;104887.41;;;10.93;nan
7309;BME280;3695;53.330;9.876;2023-08-01T07:27:50;104838.06;;;10.99;nan
7309;BME280;3695;53.330;9.876;2023-08-01T07:30:16;104889.38;;;10.91;nan
7309;BME280;3695;53.330;9.876;2023-08-01T07:32:43;104921.03;;;11.37;nan
7309;BME280;3695;53.330;9.876;2023-08-01T07:35:10;104652.84;;;11.39;nan
7309;BME280;3695;53.330;9.876;2023-08-01T07:37:38;104575.94;;;11.27;nan
7309;BME280;3695;53.330;9.876;2023-08-01T07:40:04;104724.25;;;10.85;nan
7309;BME280;3695;53.330;9.876;2023-08-01T07:42:31;104905.78;;;10.89;nan
7309;BME280;3695;53.330;9.876;2023-08-01T07:44:58;105053.38;;;11.23;nan
7309;BME280;3695;53.330;9.876;2023-08-01T07:47:24;104851.50;;;11.23;nan
7309;BME280;3695;53.330;9.876;2023-08-01T07:49:51;104653.22;;;10.57;nan
7309;BME280;3695;53.330;9.876;2023-08-01T07:52:18;105189.97;;;10.89;nan
7309;BME280;3695;53.330;9.876;2023-08-01T07:54:45;104971.13;;;11.21;nan
7309;BME280;3695;53.330;9.876;2023-08-01T07:57:12;104752.84;;;11.45;nan
7309;BME280;3695;53.330;9.876;2023-08-01T07:59:38;104981.63;;;11.94;nan
7309;BME280;3695;53.330;9.876;2023-08-01T08:02:05;104616.69;;;11.80;nan
7309;BME280;3695;53.330;9.876;2023-08-01T08:04:31;104422.22;;;11.96;nan
7309;BME280;3695;53.330;9.876;2023-08-01T08:06:58;103885.88;;;12.22;nan
7309;BME280;3695;53.330;9.876;2023-08-01T08:09:25;103411.06;;;11.87;nan
7309;BME280;3695;53.330;9.876;2023-08-01T08:11:53;103325.34;;;12.25;nan
7309;BME280;3695;53.330;9.876;2023-08-01T08:14:22;103043.31;;;11.62;nan
7309;BME280;3695;53.330;9.876;2023-08-01T08:16:48;102809.66;;;11.78;nan
7309;BME280;3695;53.330;9.876;2023-08-01T08:19:15;102560.19;;;11.59;nan
7309;BME280;3695;53.330;9.876;2023-08-01T08:21:42;102664.97;;;12.07;nan
7309;BME280;3695;53.330;9.876;2023-08-01T08:24:08;102707.53;;;12.38;nan
7309;BME280;3695;53.330;9.876;2023-08-01T08:26:35;102561.03;;;12.20;nan
7309;BME280;3695;53.330;9.876;2023-08-01T08:29:04;102585.88;;;12.17;nan
7309;BME280;3695;53.330;9.876;2023-08-01T08:31:30;102370.09;;;12.18;nan
7309;BME280;3695;53.330;9.876;2023-08-01T08:33:57;102270.81;;;12.22;nan
7309;BME280;3695;53.330;9.876;2023-08-01T08:36:23;102097.00;;;12.14;nan
7309;BME280;3695;53.330;9.876;2023-08-01T08:38:49;101943.28;;;12.39;nan
7309;BME280;3695;53.330;9.876;2023-08-01T08:41:20;101723.69;;;12.41;nan
7309;BME280;3695;53.330;9.876;2023-08-01T08:43:48;101495.34;;;12.35;nan
7309;BME280;3695;53.330;9.876;2023-08-01T08:46:16;101363.00;;;12.73;nan
7309;BME280;3695;53.330;9.876;2023-08-01T08:48:43;101237.94;;;12.67;nan
7309;BME280;3695;53.330;9.876;2023-08-01T08:51:11;101014.63;;;12.38;nan
7309;BME280;3695;53.330;9.876;2023-08-01T08:53:40;100763.50;;;12.09;nan
7309;BME280;3695;53.330;9.876;2023-08-01T08:56:08;100630.03;;;12.17;nan
7309;BME280;3695;53.330;9.876;2023-08-01T08:58:35;100663.69;;;12.58;nan
7309;BME280;3695;53.330;9.876;2023-08-01T09:01:05;100705.94;;;12.31;nan
7309;BME280;3695;53.330;9.876;2023-08-01T09:03:34;100906.34;;;12.53;nan
7309;BME280;3695;53.330;9.876;2023-08-01T09:06:04;101049.75;;;11.52;nan
7309;BME280;3695;53.330;9.876;2023-08-01T09:08:35;101363.38;;;11.48;nan
7309;BME280;3695;53.330;9.876;2023-08-01T09:11:03;101773.00;;;11.77;nan
7309;BME280;3695;53.330;9.876;2023-08-01T09:13:29;101940.81;;;12.44;nan
7309;BME280;3695;53.330;9.876;2023-08-01T09:15:56;101950.06;;;12.56;nan
7309;BME280;3695;53.330;9.876;2023-08-01T09:18:23;101897.03;;;11.91;nan
7309;BME280;3695;53.330;9.876;2023-08-01T09:20:51;102218.41;;;12.28;nan
7309;BME280;3695;53.330;9.876;2023-08-01T09:23:17;101965.28;;;12.10;nan
7309;BME280;3695;53.330;9.876;2023-08-01T09:25:44;101879.47;;;11.87;nan
7309;BME280;3695;53.330;9.876;2023-08-01T09:28:18;102082.16;;;11.88;nan
7309;BME280;3695;53.330;9.876;2023-08-01T09:30:46;102134.44;;;11.90;nan
7309;BME280;3695;53.330;9.876;2023-08-01T09:33:13;102139.00;;;12.33;nan
7309;BME280;3695;53.330;9.876;2023-08-01T09:35:39;101981.63;;;12.51;nan
7309;BME280;3695;53.330;9.876;2023-08-01T09:38:07;101870.66;;;12.94;nan
7309;BME280;3695;53.330;9.876;2023-08-01T09:40:36;101761.97;;;12.53;nan
7309;BME280;3695;53.330;9.876;2023-08-01T09:43:02;101654.47;;;12.50;nan
7309;BME280;3695;53.330;9.876;2023-08-01T09:45:29;101506.94;;;12.75;nan
7309;BME280;3695;53.330;9.876;2023-08-01T09:47:55;101370.31;;;12.28;nan
7309;BME280;3695;53.330;9.876;2023-08-01T09:50:23;101223.50;;;12.66;nan
7309;BME280;3695;53.330;9.876;2023-08-01T09:52:50;101031.13;;;12.80;nan
7309;BME280;3695;53.330;9.876;2023-08-01T09:55:23;100704.66;;;12.86;nan
7309;BME280;3695;53.330;9.876;2023-08-01T09:57:53;100270.72;;;12.50;nan
7309;BME280;3695;53.330;9.876;2023-08-01T10:00:23;99936.50;;;12.99;nan
7309;BME280;3695;53.330;9.876;2023-08-01T10:02:50;99680.19;;;12.82;nan
7309;BME280;3695;53.330;9.876;2023-08-01T10:05:19;99293.09;;;13.29;nan
7309;BME280;3695;53.330;9.876;2023-08-01T10:07:47;99159.22;;;13.06;nan
7309;BME280;3695;53.330;9.876;2023-08-01T10:10:15;99033.88;;;13.67;nan
7309;BME280;3695;53.330;9.876;2023-08-01T10:12:45;98867.09;;;13.28;nan
7309;BME280;3695;53.330;9.876;2023-08-01T10:15:13;98659.31;;;13.18;nan
7309;BME280;3695;53.330;9.876;2023-08-01T10:17:41;98732.75;;;13.18;nan
7309;BME280;3695;53.330;9.876;2023-08-01T10:20:08;98508.34;;;12.97;nan
7309;BME280;3695;53.330;9.876;2023-08-01T10:22:35;98246.31;;;13.31;nan
7309;BME280;3695;53.330;9.876;2023-08-01T10:25:03;98197.72;;;13.84;nan
7309;BME280;3695;53.330;9.876;2023-08-01T10:27:30;98168.25;;;13.45;nan
7309;BME280;3695;53.330;9.876;2023-08-01T10:29:59;98102.06;;;13.49;nan
7309;BME280;3695;53.330;9.876;2023-08-01T10:32:31;97999.31;;;14.05;nan
7309;BME280;3695;53.330;9.876;2023-08-01T10:34:58;97847.66;;;14.05;nan
7309;BME280;3695;53.330;9.876;2023-08-01T10:37:24;97880.75;;;13.99;nan
7309;BME280;3695;53.330;9.876;2023-08-01T10:39:56;97873.34;;;13.46;nan
7309;BME280;3695;53.330;9.876;2023-08-01T10:42:23;97912.06;;;13.15;nan
7309;BME280;3695;53.330;9.876;2023-08-01T10:44:50;97936.19;;;13.58;nan
7309;BME280;3695;53.330;9.876;2023-08-01T10:47:26;97805.69;;;13.75;nan
7309;BME280;3695;53.330;9.876;2023-08-01T10:49:53;97763.56;;;14.04;nan
7309;BME280;3695;53.330;9.876;2023-08-01T10:52:21;97768.97;;;14.35;nan
7309;BME280;3695;53.330;9.876;2023-08-01T10:54:56;97669.88;;;14.13;nan
7309;BME280;3695;53.330;9.876;2023-08-01T10:57:23;97747.06;;;14.66;nan
7309;BME280;3695;53.330;9.876;2023-08-01T10:59:50;97920.97;;;14.86;nan
7309;BME280;3695;53.330;9.876;2023-08-01T11:02:20;98145.47;;;14.82;nan
7309;BME280;3695;53.330;9.876;2023-08-01T11:04:56;98348.69;;;14.05;nan
7309;BME280;3695;53.330;9.876;2023-08-01T11:07:23;98413.00;;;14.20;nan
7309;BME280;3695;53.330;9.876;2023-08-01T11:09:49;98498.69;;;14.41;nan
7309;BME280;3695;53.330;9.876;2023-08-01T11:12:15;98783.47;;;13.67;nan
7309;BME280;3695;53.330;9.876;2023-08-01T11:14:42;98682.69;;;13.19;nan
7309;BME280;3695;53.330;9.876;2023-08-01T11:17:11;98822.13;;;12.91;nan
7309;BME280;3695;53.330;9.876;2023-08-01T11:19:38;99091.78;;;11.86;nan
7309;BME280;3695;53.330;9.876;2023-08-01T11:22:09;99231.91;;;11.13;nan
7309;BME280;3695;53.330;9.876;2023-08-01T11:24:36;99307.81;;;11.45;nan
7309;BME280;3695;53.330;9.876;2023-08-01T11:27:03;99924.06;;;10.68;nan
7309;BME280;3695;53.330;9.876;2023-08-01T11:29:30;100348.84;;;11.03;nan
7309;BME280;3695;53.330;9.876;2023-08-01T11:31:58;100686.78;;;11.04;nan
7309;BME280;3695;53.330;9.876;2023-08-01T11:34:24;100494.97;;;11.11;nan
7309;BME280;3695;53.330;9.876;2023-08-01T11:36:52;100315.78;;;11.94;nan
7309;BME280;3695;53.330;9.876;2023-08-01T11:39:20;100259.41;;;12.13;nan
7309;BME280;3695;53.330;9.876;2023-08-01T11:41:47;100213.66;;;11.82;nan
7309;BME280;3695;53.330;9.876;2023-08-01T11:44:13;100079.66;;;12.33;nan
7309;BME280;3695;53.330;9.876;2023-08-01T11:46:40;99941.44;;;12.58;nan
7309;BME280;3695;53.330;9.876;2023-08-01T11:49:08;99533.97;;;12.99;nan
7309;BME280;3695;53.330;9.876;2023-08-01T11:51:41;99427.91;;;12.37;nan
7309;BME280;3695;53.330;9.876;2023-08-01T11:54:08;99175.28;;;13.03;nan
7309;BME280;3695;53.330;9.876;2023-08-01T11:56:38;99264.22;;;13.07;nan
7309;BME280;3695;53.330;9.876;2023-08-01T11:59:08;99203.31;;;13.34;nan
7309;BME280;3695;53.330;9.876;2023-08-01T12:01:38;98997.53;;;13.48;nan
7309;BME280;3695;53.330;9.876;2023-08-01T12:04:05;98982.88;;;12.64;nan
7309;BME280;3695;53.330;9.876;2023-08-01T12:06:32;99169.03;;;12.56;nan
7309;BME280;3695;53.330;9.876;2023-08-01T12:09:07;99278.25;;;12.48;nan
7309;BME280;3695;53.330;9.876;2023-08-01T12:11:33;99362.25;;;12.03;nan
7309;BME280;3695;53.330;9.876;2023-08-01T12:14:02;99453.16;;;12.32;nan
7309;BME280;3695;53.330;9.876;2023-08-01T12:16:29;99712.09;;;11.89;nan
7309;BME280;3695;53.330;9.876;2023-08-01T12:18:56;99957.50;;;12.05;nan
7309;BME280;3695;53.330;9.876;2023-08-01T12:21:22;100016.75;;;11.91;nan
7309;BME280;3695;53.330;9.876;2023-08-01T12:23:49;99995.16;;;12.51;nan
7309;BME280;3695;53.330;9.876;2023-08-01T12:26:15;99798.91;;;12.76;nan
7309;BME280;3695;53.330;9.876;2023-08-01T12:28:42;99375.31;;;12.68;nan
7309;BME280;3695;53.330;9.876;2023-08-01T12:31:09;99240.78;;;12.71;nan
7309;BME280;3695;53.330;9.876;2023-08-01T12:33:36;99285.06;;;12.56;nan
7309;BME280;3695;53.330;9.876;2023-08-01T12:36:03;99256.56;;;12.69;nan
7309;BME280;3695;53.330;9.876;2023-08-01T12:38:30;99208.75;;;12.83;nan
7309;BME280;3695;53.330;9.876;2023-08-01T12:40:56;99084.97;;;13.11;nan
7309;BME280;3695;53.330;9.876;2023-08-01T12:43:23;99185.06;;;12.68;nan
7309;BME280;3695;53.330;9.876;2023-08-01T12:45:49;99149.47;;;13.00;nan
7309;BME280;3695;53.330;9.876;2023-08-01T12:48:17;99411.72;;;12.57;nan
7309;BME280;3695;53.330;9.876;2023-08-01T12:50:44;99632.78;;;12.73;nan
7309;BME280;3695;53.330;9.876;2023-08-01T12:53:11;99621.75;;;12.52;nan
7309;BME280;3695;53.330;9.876;2023-08-01T12:55:38;99649.84;;;13.00;nan
7309;BME280;3695;53.330;9.876;2023-08-01T12:58:04;99717.03;;;12.41;nan
7309;BME280;3695;53.330;9.876;2023-08-01T13:00:31;99572.06;;;12.99;nan
7309;BME280;3695;53.330;9.876;2023-08-01T13:02:57;99663.75;;;12.72;nan
7309;BME280;3695;53.330;9.876;2023-08-01T13:05:26;99795.47;;;12.59;nan
7309;BME280;3695;53.330;9.876;2023-08-01T13:07:52;99694.25;;;12.20;nan
7309;BME280;3695;53.330;9.876;2023-08-01T13:10:19;99993.22;;;11.96;nan
7309;BME280;3695;53.330;9.876;2023-08-01T13:12:45;100059.06;;;12.37;nan
7309;BME280;3695;53.330;9.876;2023-08-01T13:15:12;99800.81;;;12.05;nan
7309;BME280;3695;53.330;9.876;2023-08-01T13:17:38;99710.72;;;12.94;nan
7309;BME280;3695;53.330;9.876;2023-08-01T13:20:06;99641.91;;;12.93;nan
7309;BME280;3695;53.330;9.876;2023-08-01T13:22:34;99591.59;;;12.91;nan
7309;BME280;3695;53.330;9.876;2023-08-01T13:25:00;99854.75;;;12.62;nan
7309;BME280;3695;53.330;9.876;2023-08-01T13:27:28;99859.19;;;12.24;nan
7309;BME280;3695;53.330;9.876;2023-08-01T13:29:54;99924.75;;;11.94;nan
7309;BME280;3695;53.330;9.876;2023-08-01T13:32:21;100263.84;;;11.79;nan
7309;BME280;3695;53.330;9.876;2023-08-01T13:34:47;100707.13;;;11.31;nan
7309;BME280;3695;53.330;9.876;2023-08-01T13:37:14;101356.69;;;11.30;nan